Time;durP1;ratioP1;P1;durP2;ratioP2;P2;SDS_P1;SDS_P2;PMS_P1;PMS_P2;Temp;Humidity;BMP_temperature;BMP_pressure;BME280_temperature;BME280_humidity;BME280_pressure;Samples;Min_cycle;Max_cycle;Signal;HPM_P1;HPM_P2
2021/12/04 00:00:06;;;;;;;1.00;0.70;;;;;;;4.25;77.80;97484.53;5073711;28;20222;-56
2021/12/04 00:02:40;;;;;;;1.23;0.57;;;;;;;4.25;77.13;97486.31;5073875;28;20255;-55
2021/12/04 00:05:08;;;;;;;1.27;0.50;;;;;;;4.17;79.86;97492.19;5074474;28;20190;-55
2021/12/04 00:07:37;;;;;;;0.90;0.50;;;;;;;4.18;80.51;97486.06;5074199;28;20186;-56
2021/12/04 00:10:05;;;;;;;1.73;0.50;;;;;;;4.13;82.33;97498.56;5069176;28;20277;-56
2021/12/04 00:12:33;;;;;;;0.70;0.43;;;;;;;4.11;82.82;97492.72;5065629;28;20617;-53
2021/12/04 00:15:00;;;;;;;1.03;0.43;;;;;;;4.11;83.27;97497.91;5074595;28;20257;-56
2021/12/04 00:17:27;;;;;;;3.00;0.33;;;;;;;4.03;83.16;97493.41;5073946;28;20186;-54
2021/12/04 00:19:54;;;;;;;0.77;0.40;;;;;;;3.93;85.17;97496.00;5073355;28;20217;-56
2021/12/04 00:22:22;;;;;;;0.73;0.40;;;;;;;3.91;86.07;97503.06;5073368;28;20202;-55
2021/12/04 00:24:50;;;;;;;0.50;0.40;;;;;;;3.87;85.80;97486.22;5073485;28;20193;-53
2021/12/04 00:27:17;;;;;;;1.33;0.37;;;;;;;3.81;87.03;97489.34;5074130;28;20196;-53
2021/12/04 00:29:44;;;;;;;0.20;0.20;;;;;;;3.78;86.78;97477.50;5072364;28;20290;-56
2021/12/04 00:32:13;;;;;;;2.83;0.40;;;;;;;3.74;87.64;97460.66;5073338;28;20206;-56
2021/12/04 00:34:43;;;;;;;0.47;0.30;;;;;;;3.75;88.90;97469.25;5073956;28;20206;-56
2021/12/04 00:51:05;;;;;;;0.13;0.13;;;;;;;3.69;88.92;97422.38;5072562;28;20218;-54
2021/12/04 00:53:32;;;;;;;0.50;0.27;;;;;;;3.69;89.01;97419.78;5072820;28;20191;-55
2021/12/04 00:56:00;;;;;;;0.40;0.20;;;;;;;3.67;90.40;97413.97;5072745;28;20186;-55
2021/12/04 00:58:27;;;;;;;0.40;0.20;;;;;;;3.66;90.19;97414.91;5073681;28;20190;-56
2021/12/04 01:00:53;;;;;;;0.23;0.10;;;;;;;3.63;91.35;97407.44;5072765;28;20202;-53
2021/12/04 01:03:20;;;;;;;0.10;0.10;;;;;;;3.63;90.47;97394.53;5072955;28;20214;-56
2021/12/04 01:05:47;;;;;;;0.20;0.20;;;;;;;3.63;90.47;97386.78;5073268;28;20194;-54
2021/12/04 01:08:14;;;;;;;0.87;0.20;;;;;;;3.63;90.66;97391.16;5073398;28;20179;-56
2021/12/04 01:10:41;;;;;;;0.10;0.10;;;;;;;3.69;88.96;97378.50;5071647;28;20224;-53
2021/12/04 01:13:11;;;;;;;0.30;0.10;;;;;;;3.69;89.25;97381.09;5063399;28;20680;-54
2021/12/04 01:15:39;;;;;;;0.13;0.13;;;;;;;3.67;90.42;97370.09;5073293;28;20682;-55
2021/12/04 01:18:05;;;;;;;0.10;0.10;;;;;;;3.69;91.06;97378.50;5072671;28;20265;-56
2021/12/04 01:20:32;;;;;;;0.30;0.20;;;;;;;3.71;90.56;97377.56;5072133;28;20717;-53
2021/12/04 01:22:59;;;;;;;0.10;0.10;;;;;;;3.71;90.35;97362.88;5072815;28;20226;-56
2021/12/04 01:25:26;;;;;;;0.10;0.10;;;;;;;3.73;90.84;97355.00;5072667;28;20191;-56
2021/12/04 01:27:52;;;;;;;0.10;0.10;;;;;;;3.77;90.77;97349.41;5072716;28;20539;-52
2021/12/04 01:30:20;;;;;;;0.47;0.10;;;;;;;3.77;90.51;97340.88;5072184;28;20564;-55
2021/12/04 01:32:47;;;;;;;0.30;0.20;;;;;;;3.76;91.03;97332.28;5072174;28;20232;-54
2021/12/04 01:35:14;;;;;;;0.50;0.20;;;;;;;3.83;90.58;97320.47;5072939;28;20194;-56
2021/12/04 01:37:41;;;;;;;0.10;0.10;;;;;;;3.87;89.96;97318.44;5072758;28;20187;-55
2021/12/04 01:40:09;;;;;;;0.40;0.10;;;;;;;3.88;90.36;97324.38;5071516;28;20613;-53
2021/12/04 01:42:36;;;;;;;0.10;0.10;;;;;;;3.86;91.64;97311.63;5072337;28;20210;-56
2021/12/04 01:45:05;;;;;;;0.53;0.13;;;;;;;3.93;91.10;97304.13;5072726;28;20261;-54
2021/12/04 01:47:34;;;;;;;0.10;0.10;;;;;;;3.97;90.53;97301.13;5072192;28;20665;-54
2021/12/04 01:50:01;;;;;;;0.83;0.10;;;;;;;4.01;90.52;97301.66;5071565;28;20208;-56
2021/12/04 01:52:28;;;;;;;0.20;0.10;;;;;;;4.08;90.14;97278.66;5072468;28;20186;-53
2021/12/04 01:54:55;;;;;;;1.70;0.20;;;;;;;4.08;90.06;97261.41;5071742;28;20185;-55
2021/12/04 01:57:23;;;;;;;0.20;0.10;;;;;;;4.10;89.53;97266.44;5072737;28;20595;-54
2021/12/04 01:59:51;;;;;;;1.90;1.43;;;;;;;4.12;90.37;97251.59;5071287;28;20211;-53
2021/12/04 02:02:18;;;;;;;0.27;0.10;;;;;;;4.14;89.95;97255.66;5070595;28;20336;-56
2021/12/04 02:04:46;;;;;;;0.10;0.10;;;;;;;4.16;90.97;97265.03;5070989;28;20269;-55
2021/12/04 02:07:15;;;;;;;0.20;0.20;;;;;;;4.19;90.01;97262.16;5072371;28;20198;-56
2021/12/04 02:09:41;;;;;;;0.27;0.20;;;;;;;4.25;91.01;97264.16;5070981;28;20214;-55
2021/12/04 02:12:09;;;;;;;0.43;0.20;;;;;;;4.26;91.79;97266.59;5070359;28;20547;-54
2021/12/04 02:14:39;;;;;;;0.33;0.30;;;;;;;4.26;92.48;97258.84;5064218;28;20197;-56
2021/12/04 02:17:06;;;;;;;0.20;0.20;;;;;;;4.24;92.67;97247.03;5071470;28;20186;-55
2021/12/04 02:19:33;;;;;;;0.43;0.20;;;;;;;4.28;93.19;97248.38;5071099;28;20217;-56
2021/12/04 02:22:01;;;;;;;0.17;0.17;;;;;;;4.30;93.74;97233.56;5071559;28;20182;-56
2021/12/04 02:24:28;;;;;;;0.30;0.20;;;;;;;4.36;93.88;97232.97;5070837;28;20891;-56
2021/12/04 02:26:55;;;;;;;0.53;0.20;;;;;;;4.35;94.39;97238.28;5071870;28;20182;-56
2021/12/04 02:29:21;;;;;;;0.13;0.13;;;;;;;4.40;93.60;97230.91;5071696;28;20726;-54
2021/12/04 02:31:49;;;;;;;0.63;0.20;;;;;;;4.43;94.37;97228.84;5070235;28;20191;-54
2021/12/04 02:34:20;;;;;;;0.33;0.20;;;;;;;4.50;93.52;97234.22;5071299;28;20830;-55
2021/12/04 02:36:47;;;;;;;0.20;0.20;;;;;;;4.52;94.45;97223.75;5071803;28;20194;-55
2021/12/04 02:39:23;;;;;;;0.40;0.20;;;;;;;4.54;93.91;97225.22;5071176;28;20198;-56
2021/12/04 02:41:50;;;;;;;0.53;0.20;;;;;;;4.56;94.95;97204.41;5070045;28;20253;-54
2021/12/04 02:44:16;;;;;;;0.30;0.20;;;;;;;4.61;95.05;97201.38;5069105;28;20218;-56
2021/12/04 02:46:43;;;;;;;0.37;0.20;;;;;;;4.61;95.57;97201.38;5071601;28;20174;-57
2021/12/04 02:49:12;;;;;;;0.10;0.10;;;;;;;4.62;96.04;97188.31;5070740;28;20179;-56
2021/12/04 02:51:39;;;;;;;0.10;0.10;;;;;;;4.67;95.09;97187.88;5063393;28;20539;-57
2021/12/04 02:54:07;;;;;;;0.20;0.20;;;;;;;4.69;94.92;97180.78;5052431;28;20191;-55
2021/12/04 02:56:35;;;;;;;0.73;0.20;;;;;;;4.68;95.57;97182.56;5058081;28;20187;-57
2021/12/04 02:59:03;;;;;;;0.30;0.20;;;;;;;4.70;96.13;97166.88;5057694;28;20191;-56
2021/12/04 03:01:30;;;;;;;0.40;0.33;;;;;;;4.70;95.79;97162.53;5059610;28;20702;-56
2021/12/04 03:04:06;;;;;;;0.27;0.20;;;;;;;4.75;95.43;97156.13;5061561;28;20217;-55
2021/12/04 03:06:39;;;;;;;0.20;0.20;;;;;;;4.78;95.58;97151.44;5061670;28;20191;-56
2021/12/04 03:09:05;;;;;;;0.20;0.10;;;;;;;4.81;96.49;97147.72;5061121;28;20201;-56
2021/12/04 03:11:33;;;;;;;0.30;0.20;;;;;;;4.82;95.66;97142.44;5063730;28;20793;-56
2021/12/04 03:14:01;;;;;;;0.30;0.20;;;;;;;5.00;94.92;97136.41;5060249;28;20582;-56
2021/12/04 03:16:28;;;;;;;0.20;0.17;;;;;;;4.99;95.74;97130.41;5056492;28;20719;-54
2021/12/04 03:18:55;;;;;;;1.00;0.50;;;;;;;4.97;95.78;97124.56;5065527;28;20194;-55
2021/12/04 03:21:22;;;;;;;0.20;0.20;;;;;;;4.96;96.90;97116.97;5061985;28;20198;-56
2021/12/04 03:23:55;;;;;;;0.60;0.20;;;;;;;4.97;96.54;97109.06;5060789;28;20195;-53
2021/12/04 03:26:22;;;;;;;0.10;0.10;;;;;;;5.02;97.12;97106.03;5060176;28;20664;-56
2021/12/04 03:28:51;;;;;;;0.20;0.17;;;;;;;5.06;97.66;97091.81;5060946;28;20180;-53
2021/12/04 03:31:24;;;;;;;0.20;0.10;;;;;;;5.11;97.28;97089.59;5061286;28;20280;-56
2021/12/04 03:42:05;;;;;;;0.10;0.10;;;;;;;5.27;96.78;97077.69;5060098;28;20717;-56
2021/12/04 03:44:32;;;;;;;0.13;0.10;;;;;;;5.28;97.50;97056.03;5060617;28;20692;-55
2021/12/04 03:47:01;;;;;;;0.10;0.10;;;;;;;5.31;97.21;97058.28;5062017;28;20547;-56
2021/12/04 03:49:28;;;;;;;0.20;0.20;;;;;;;5.38;97.43;97042.97;5055337;28;20207;-55
2021/12/04 03:51:55;;;;;;;0.33;0.20;;;;;;;5.42;97.83;97036.50;5058727;28;20206;-52
2021/12/04 03:54:22;;;;;;;0.10;0.10;;;;;;;5.53;95.58;97041.41;5062447;28;20586;-56
2021/12/04 03:56:50;;;;;;;0.10;0.10;;;;;;;5.57;96.03;97037.53;5060938;28;20192;-56
2021/12/04 03:59:18;;;;;;;0.10;0.10;;;;;;;5.59;96.03;97021.81;5061537;28;20230;-55
2021/12/04 04:01:45;;;;;;;0.10;0.10;;;;;;;5.67;95.16;97024.44;5059313;28;20191;-53
2021/12/04 04:04:13;;;;;;;0.10;0.10;;;;;;;5.68;95.05;97033.81;5060315;28;20294;-56
2021/12/04 04:06:40;;;;;;;0.10;0.10;;;;;;;5.74;94.15;97020.22;5054944;28;20198;-56
2021/12/04 04:09:07;;;;;;;0.00;0.00;;;;;;;5.74;95.59;97019.44;5064381;28;20199;-53
2021/12/04 04:11:36;;;;;;;0.10;0.10;;;;;;;5.74;94.99;97033.19;5062227;28;20188;-53
2021/12/04 04:14:03;;;;;;;0.10;0.10;;;;;;;5.75;95.10;97018.47;5059567;28;20186;-53
2021/12/04 04:16:30;;;;;;;0.13;0.10;;;;;;;5.78;95.43;97023.31;5060657;28;20211;-55
2021/12/04 04:18:57;;;;;;;0.10;0.10;;;;;;;5.86;95.55;97014.75;5061363;28;20199;-55
2021/12/04 04:21:25;;;;;;;0.10;0.10;;;;;;;5.87;95.54;97017.16;5057668;28;20211;-55
2021/12/04 04:23:51;;;;;;;0.10;0.10;;;;;;;5.91;95.77;97010.69;5058495;28;20199;-55
2021/12/04 04:26:18;;;;;;;0.03;0.03;;;;;;;5.90;96.16;97013.47;5060690;28;20203;-56
2021/12/04 04:28:45;;;;;;;0.10;0.10;;;;;;;5.85;96.70;97008.75;5065275;28;20183;-55
2021/12/04 04:31:12;;;;;;;0.10;0.00;;;;;;;5.84;96.84;97007.13;5063122;28;20207;-52
2021/12/04 04:33:40;;;;;;;0.10;0.10;;;;;;;5.87;96.65;97017.16;5065168;28;20191;-56
2021/12/04 04:36:17;;;;;;;0.00;0.00;;;;;;;5.90;97.43;97013.47;5063756;28;20215;-52
2021/12/04 04:38:53;;;;;;;0.10;0.00;;;;;;;5.93;97.25;97013.13;5058695;28;20873;-54
2021/12/04 04:58:13;;;;;;;0.20;0.10;;;;;;;6.11;98.07;96992.28;5065934;28;20664;-54
2021/12/04 05:11:56;;;;;;;0.10;0.10;;;;;;;6.29;99.74;96971.38;5057202;28;20202;-54
2021/12/04 05:14:23;;;;;;;1.73;0.10;;;;;;;6.26;100.00;96971.72;5069551;28;20606;-56
2021/12/04 05:16:52;;;;;;;0.10;0.10;;;;;;;6.29;100.00;96971.38;5064917;28;20179;-54
2021/12/04 05:19:27;;;;;;;0.20;0.10;;;;;;;6.32;100.00;96975.41;5064098;28;20613;-57
2021/12/04 05:21:55;;;;;;;1.20;0.10;;;;;;;6.30;100.00;96965.22;5062902;28;20265;-57
2021/12/04 05:24:23;;;;;;;0.10;0.10;;;;;;;6.33;99.89;96971.84;5062053;28;20199;-53
2021/12/04 05:26:53;;;;;;;0.00;0.00;;;;;;;6.35;100.00;96969.91;5063433;28;20192;-54
2021/12/04 05:29:19;;;;;;;0.40;0.10;;;;;;;6.39;100.00;96962.59;5058416;28;20210;-56
2021/12/04 05:31:47;;;;;;;0.33;0.17;;;;;;;6.42;100.00;96954.50;5065536;28;20682;-55
2021/12/04 05:34:14;;;;;;;0.20;0.17;;;;;;;6.44;100.00;96944.75;5064078;28;20648;-53
2021/12/04 05:36:41;;;;;;;0.10;0.10;;;;;;;6.41;100.00;96953.69;5064104;28;20182;-56
2021/12/04 05:39:08;;;;;;;0.20;0.10;;;;;;;6.35;100.00;96952.59;5062385;28;20186;-57
2021/12/04 05:41:35;;;;;;;0.13;0.10;;;;;;;6.37;100.00;96949.81;5061560;28;20543;-57
2021/12/04 05:44:06;;;;;;;0.00;0.00;;;;;;;6.42;100.00;96952.72;5061479;28;20219;-57
2021/12/04 05:46:39;;;;;;;0.10;0.10;;;;;;;6.49;100.00;96958.88;5063801;28;20195;-56
2021/12/04 05:49:11;;;;;;;0.57;0.43;;;;;;;6.53;100.00;96950.75;5064472;28;20676;-56
2021/12/04 05:54:43;;;;;;;0.10;0.10;;;;;;;6.58;100.00;96944.09;5053105;28;20453;-54
2021/12/04 05:57:12;;;;;;;0.00;0.00;;;;;;;6.54;100.00;96942.78;5062398;28;20187;-56
2021/12/04 05:59:41;;;;;;;16.63;6.40;;;;;;;6.54;100.00;96940.19;5059085;28;20700;-56
2021/12/04 06:02:07;;;;;;;14.13;8.17;;;;;;;6.52;100.00;96942.16;5055998;28;20194;-56
2021/12/04 06:04:34;;;;;;;1.13;1.00;;;;;;;6.54;100.00;96945.38;5065030;28;20218;-57
2021/12/04 06:07:01;;;;;;;0.10;0.10;;;;;;;6.60;100.00;96949.91;5063694;28;20179;-57
2021/12/04 06:09:28;;;;;;;0.20;0.20;;;;;;;6.65;100.00;96932.06;5061880;28;20211;-56
2021/12/04 06:11:57;;;;;;;0.10;0.10;;;;;;;6.67;100.00;96949.25;5061077;28;20221;-57
2021/12/04 06:14:24;;;;;;;0.10;0.00;;;;;;;6.68;100.00;96943.06;5061286;28;20183;-53
2021/12/04 06:16:53;;;;;;;1.80;0.10;;;;;;;6.71;100.00;96942.75;5060165;28;20386;-53
2021/12/04 06:22:37;;;;;;;0.47;0.30;;;;;;;6.73;100.00;96938.19;5059108;28;20201;-57
2021/12/04 06:24:57;;;;;;;0.93;0.60;;;;;;;6.77;100.00;96927.34;5061127;28;20279;-57
2021/12/04 06:27:24;;;;;;;0.70;0.20;;;;;;;6.82;100.00;96929.41;5062929;28;20217;-55
2021/12/04 06:29:51;;;;;;;0.30;0.17;;;;;;;6.86;100.00;96930.69;5060972;28;20207;-56
2021/12/04 06:32:20;;;;;;;21.70;10.20;;;;;;;6.85;100.00;96918.69;5061141;28;20195;-54
2021/12/04 06:34:47;;;;;;;4.13;3.80;;;;;;;6.88;100.00;96935.72;5054355;28;20640;-55
2021/12/04 06:37:14;;;;;;;1.40;1.10;;;;;;;6.90;100.00;96920.78;5062493;28;20202;-54
2021/12/04 06:39:41;;;;;;;6.23;5.60;;;;;;;6.88;100.00;96918.38;5062455;28;20743;-55
2021/12/04 06:42:08;;;;;;;6.70;6.10;;;;;;;7.00;100.00;96918.00;5062151;28;20202;-55
2021/12/04 06:44:35;;;;;;;5.00;4.60;;;;;;;6.97;100.00;96924.31;5062049;28;20572;-56
2021/12/04 06:47:02;;;;;;;3.17;2.60;;;;;;;6.96;100.00;96924.50;5060866;28;20688;-53
2021/12/04 06:49:33;;;;;;;2.37;2.17;;;;;;;6.93;100.00;96907.47;5058439;28;20313;-56
2021/12/04 06:52:04;;;;;;;4.40;4.10;;;;;;;7.01;100.00;96919.59;5060218;28;20275;-56
2021/12/04 06:54:34;;;;;;;1.53;1.43;;;;;;;7.03;100.00;96912.47;5064145;28;20270;-56
2021/12/04 06:57:03;;;;;;;0.63;0.30;;;;;;;7.07;100.00;96918.94;5062765;28;20606;-57
2021/12/04 06:59:32;;;;;;;0.50;0.50;;;;;;;7.07;100.00;96916.34;5061163;28;20203;-56
2021/12/04 07:01:59;;;;;;;2.00;0.40;;;;;;;7.09;100.00;96922.16;5060155;28;20187;-55
2021/12/04 07:04:30;;;;;;;0.37;0.37;;;;;;;7.13;100.00;96909.63;5060641;28;20557;-55
2021/12/04 07:06:58;;;;;;;0.60;0.60;;;;;;;7.17;100.00;96906.53;5057057;28;20200;-56
2021/12/04 07:09:24;;;;;;;0.50;0.50;;;;;;;7.19;100.00;96917.56;5063365;28;20209;-57
2021/12/04 07:11:51;;;;;;;0.67;0.67;;;;;;;7.18;100.00;96902.16;5063208;28;20194;-57
2021/12/04 07:14:18;;;;;;;0.37;0.37;;;;;;;7.20;100.00;96916.59;5062186;28;20186;-53
2021/12/04 07:16:46;;;;;;;0.40;0.40;;;;;;;7.18;100.00;96909.94;5060478;28;20195;-54
2021/12/04 07:19:13;;;;;;;0.83;0.80;;;;;;;7.18;100.00;96913.34;5060856;28;20191;-54
2021/12/04 07:21:40;;;;;;;0.67;0.60;;;;;;;7.17;100.00;96913.50;5061585;28;20618;-52
2021/12/04 07:24:10;;;;;;;0.50;0.40;;;;;;;7.26;100.00;96922.06;5054161;28;20588;-55
2021/12/04 07:26:37;;;;;;;1.23;0.20;;;;;;;7.24;100.00;96920.44;5061435;28;20726;-54
2021/12/04 07:29:04;;;;;;;0.50;0.37;;;;;;;7.22;100.00;96922.41;5062773;28;20183;-56
2021/12/04 07:31:31;;;;;;;1.10;0.40;;;;;;;7.27;100.00;96921.88;5060692;28;20663;-55
2021/12/04 07:33:58;;;;;;;0.57;0.33;;;;;;;7.30;100.00;96913.75;5061894;28;20179;-53
2021/12/04 07:36:25;;;;;;;2.90;1.07;;;;;;;7.36;100.00;96920.84;5060329;28;20179;-53
2021/12/04 07:38:52;;;;;;;1.50;1.13;;;;;;;7.35;100.00;96918.44;5059610;28;20580;-55
2021/12/04 07:41:20;;;;;;;0.80;0.80;;;;;;;7.39;100.00;96917.13;5056742;28;20211;-53
2021/12/04 07:43:48;;;;;;;0.90;0.70;;;;;;;7.37;100.00;96913.88;5066694;28;20202;-55
2021/12/04 07:46:15;;;;;;;0.93;0.50;;;;;;;7.45;100.00;96907.81;5061893;28;20190;-52
2021/12/04 07:48:42;;;;;;;0.20;0.20;;;;;;;7.56;100.00;96909.19;5061922;28;20186;-55
2021/12/04 07:51:08;;;;;;;1.63;1.20;;;;;;;7.60;100.00;96906.09;5059697;28;20199;-54
2021/12/04 07:53:35;;;;;;;0.97;0.87;;;;;;;7.61;100.00;96902.50;5060790;28;20207;-52
2021/12/04 07:56:03;;;;;;;0.40;0.40;;;;;;;7.68;100.00;96921.59;5057428;28;20191;-53
2021/12/04 07:58:31;;;;;;;1.10;0.90;;;;;;;7.71;100.00;96907.44;5071102;28;20210;-54
2021/12/04 08:01:00;;;;;;;1.17;0.80;;;;;;;7.73;100.00;96910.69;5060467;28;20630;-52
2021/12/04 08:03:26;;;;;;;1.23;1.10;;;;;;;7.80;100.00;96921.97;5062634;28;20211;-53
2021/12/04 08:05:53;;;;;;;0.43;0.20;;;;;;;7.80;100.00;96906.41;5064735;28;20187;-52
2021/12/04 08:08:20;;;;;;;0.87;0.40;;;;;;;7.79;100.00;96906.59;5065773;28;20198;-53
2021/12/04 08:10:47;;;;;;;0.50;0.43;;;;;;;7.82;100.00;96907.03;5063077;28;20542;-56
2021/12/04 08:13:14;;;;;;;1.70;0.40;;;;;;;7.85;100.00;96907.66;5059010;28;20237;-55
2021/12/04 08:15:42;;;;;;;1.10;0.60;;;;;;;7.88;100.00;96913.31;5067074;28;20205;-54
2021/12/04 08:18:09;;;;;;;0.80;0.40;;;;;;;7.94;100.00;96911.81;5066778;28;20214;-54
2021/12/04 08:20:36;;;;;;;1.17;0.87;;;;;;;8.04;100.00;96885.56;5063089;28;20225;-52
2021/12/04 08:23:03;;;;;;;0.37;0.30;;;;;;;8.03;100.00;96915.13;5065410;28;20269;-52
2021/12/04 08:25:31;;;;;;;1.57;0.30;;;;;;;7.98;100.00;96897.47;5063943;28;20238;-56
2021/12/04 08:27:59;;;;;;;2.70;1.20;;;;;;;7.99;100.00;96912.09;5063362;28;20568;-56
2021/12/04 08:30:29;;;;;;;0.20;0.20;;;;;;;8.02;100.00;96908.31;5060762;28;20300;-56
2021/12/04 08:32:57;;;;;;;1.37;0.60;;;;;;;8.03;100.00;96902.94;5063546;28;20240;-54
2021/12/04 08:35:26;;;;;;;0.20;0.20;;;;;;;8.07;100.00;96909.41;5067854;28;20175;-53
2021/12/04 08:37:58;;;;;;;1.27;0.40;;;;;;;8.13;100.00;96913.06;5064243;28;20218;-53
2021/12/04 08:40:26;;;;;;;1.20;1.10;;;;;;;8.09;100.00;96914.41;5062120;28;20199;-53
2021/12/04 08:42:53;;;;;;;1.33;0.83;;;;;;;8.08;100.00;96903.22;5064091;28;20596;-54
2021/12/04 08:45:20;;;;;;;0.87;0.60;;;;;;;8.12;100.00;96899.28;5060981;28;20219;-55
2021/12/04 08:47:47;;;;;;;1.90;1.00;;;;;;;8.12;100.00;96886.28;5066060;28;20590;-54
2021/12/04 08:50:18;;;;;;;1.63;0.33;;;;;;;8.16;100.00;96909.34;5061570;28;20226;-53
2021/12/04 08:52:45;;;;;;;0.50;0.30;;;;;;;8.20;100.00;96902.78;5064568;28;20190;-53
2021/12/04 08:55:13;;;;;;;0.20;0.20;;;;;;;8.25;100.00;96897.88;5063359;28;20190;-53
2021/12/04 08:57:40;;;;;;;0.40;0.20;;;;;;;8.33;99.74;96905.59;5062745;28;20244;-53
2021/12/04 09:00:10;;;;;;;0.53;0.20;;;;;;;8.41;99.18;96892.50;5060828;28;20218;-52
2021/12/04 09:02:38;;;;;;;7.70;4.75;;;;;;;8.45;99.54;96902.53;5061707;28;20509;-56
2021/12/04 09:05:07;;;;;;;6.67;3.73;;;;;;;8.46;99.96;96902.34;5065429;28;20207;-54
2021/12/04 09:07:35;;;;;;;2.70;2.30;;;;;;;8.50;99.53;96906.22;5066786;28;20211;-55
2021/12/04 09:10:03;;;;;;;4.43;4.03;;;;;;;8.54;99.09;96906.66;5061988;28;20245;-56
2021/12/04 09:12:30;;;;;;;1.60;0.83;;;;;;;8.55;99.32;96909.09;5064043;28;20190;-57
2021/12/04 09:14:58;;;;;;;1.40;1.30;;;;;;;8.60;98.08;96890.34;5063605;28;20718;-55
2021/12/04 09:17:25;;;;;;;2.97;2.67;;;;;;;8.67;98.25;96906.84;5062037;28;20202;-54
2021/12/04 09:19:52;;;;;;;7.37;6.77;;;;;;;8.70;98.43;96910.88;5056166;28;20254;-57
2021/12/04 09:22:24;;;;;;;2.17;1.20;;;;;;;8.76;97.32;96896.34;5066578;28;20253;-57
2021/12/04 09:24:55;;;;;;;0.87;0.50;;;;;;;8.74;97.61;96895.72;5063484;28;20210;-53
2021/12/04 09:27:35;;;;;;;0.40;0.30;;;;;;;8.73;99.56;96888.88;5062205;28;20196;-53
2021/12/04 09:30:11;;;;;;;1.13;0.80;;;;;;;8.73;98.04;96899.28;5061371;28;20218;-57
2021/12/04 09:33:04;;;;;;;2.03;1.07;;;;;;;8.74;98.63;96899.13;5062556;28;20193;-56
2021/12/04 10:03:34;;;;;;;0.80;0.20;;;;;;;9.08;95.36;96873.47;5059752;28;20256;-53
2021/12/04 10:06:31;;;;;;;0.40;0.20;;;;;;;9.11;94.80;96879.09;5063266;28;20200;-56
2021/12/04 10:12:20;;;;;;;0.77;0.17;;;;;;;9.34;92.34;96848.69;5063138;28;20198;-56
2021/12/04 10:15:24;;;;;;;0.30;0.30;;;;;;;9.38;92.53;96855.16;5061490;28;20196;-56
2021/12/04 10:20:44;;;;;;;0.97;0.30;;;;;;;9.56;90.79;96852.06;5061195;28;20233;-56
2021/12/04 10:34:13;;;;;;;0.30;0.30;;;;;;;9.73;91.39;96837.78;5061916;28;20246;-53
2021/12/04 10:36:40;;;;;;;2.90;2.10;;;;;;;9.74;91.80;96828.16;5061004;28;20184;-56
2021/12/04 10:39:10;;;;;;;1.47;0.90;;;;;;;9.81;90.53;96823.78;5051741;28;20187;-53
2021/12/04 10:41:39;;;;;;;1.77;0.90;;;;;;;9.86;90.82;96816.22;5053532;28;20185;-57
2021/12/04 10:44:15;;;;;;;1.33;0.53;;;;;;;9.81;91.10;96802.94;5064284;28;20263;-57
2021/12/04 10:46:56;;;;;;;1.87;1.60;;;;;;;9.88;90.89;96806.41;5062851;28;20618;-56
2021/12/04 10:49:37;;;;;;;1.70;0.33;;;;;;;9.82;91.71;96801.97;5060659;28;20193;-54
2021/12/04 10:52:06;;;;;;;1.67;1.43;;;;;;;9.81;91.81;96787.31;5060400;28;20279;-56
2021/12/04 10:54:39;;;;;;;1.40;0.80;;;;;;;9.80;92.16;96777.88;5061901;28;20186;-56
2021/12/04 11:00:01;;;;;;;0.60;0.20;;;;;;;9.77;92.32;96782.69;5064277;28;20220;-54
2021/12/04 11:02:38;;;;;;;0.33;0.30;;;;;;;9.82;91.42;96769.91;5064042;28;20295;-56
2021/12/04 11:05:25;;;;;;;0.70;0.30;;;;;;;9.78;92.75;96774.66;5060488;28;20207;-55
2021/12/04 11:18:35;;;;;;;0.70;0.30;;;;;;;9.76;92.49;96784.47;5061207;28;20246;-55
2021/12/04 11:19:16;;;;;;;0.20;0.20;;;;;;;9.39;97.52;96773.44;5040279;28;20192;-56
2021/12/04 11:21:59;;;;;;;0.70;0.40;;;;;;;9.32;99.61;96777.78;5037262;28;20236;-56
2021/12/04 11:24:55;;;;;;;2.20;0.47;;;;;;;9.24;98.54;96745.69;5051325;28;20202;-56
2021/12/04 11:27:45;;;;;;;0.23;0.23;;;;;;;9.30;97.96;96741.50;5059144;28;20218;-56
2021/12/04 11:38:44;;;;;;;1.07;0.50;;;;;;;9.58;94.16;96731.06;5088457;27;20547;-56
2021/12/04 11:41:21;;;;;;;1.33;0.23;;;;;;;9.54;95.48;96724.63;5075276;28;20211;-56
2021/12/04 11:44:03;;;;;;;0.43;0.17;;;;;;;9.55;95.27;96717.63;5075253;28;20183;-56
2021/12/04 11:46:43;;;;;;;0.20;0.20;;;;;;;9.56;94.92;96727.06;5066044;28;20192;-56
2021/12/04 11:49:13;;;;;;;0.47;0.30;;;;;;;9.69;93.30;96726.31;5070235;28;20199;-55
2021/12/04 11:51:54;;;;;;;0.50;0.30;;;;;;;9.73;92.24;96712.72;5080238;28;20201;-56
2021/12/04 11:54:24;;;;;;;0.43;0.30;;;;;;;9.90;89.94;96717.63;5078870;28;20190;-56
2021/12/04 11:57:00;;;;;;;0.90;0.30;;;;;;;9.86;92.47;96714.59;5075657;28;20256;-56
2021/12/04 11:59:28;;;;;;;0.90;0.50;;;;;;;9.91;91.12;96706.19;5077295;28;20237;-56
2021/12/04 12:01:56;;;;;;;0.90;0.60;;;;;;;9.77;92.25;96699.31;5076795;28;20183;-56
2021/12/04 12:04:33;;;;;;;0.43;0.23;;;;;;;9.72;91.14;96697.28;5061750;28;20263;-56
2021/12/04 12:07:11;;;;;;;1.37;0.47;;;;;;;9.70;91.81;96710.50;5077008;28;20195;-56
2021/12/04 12:09:40;;;;;;;0.70;0.37;;;;;;;9.60;94.59;96713.44;5077489;28;20622;-56
2021/12/04 12:12:12;;;;;;;0.33;0.30;;;;;;;9.45;96.32;96713.56;5074637;28;20667;-56
2021/12/04 12:14:46;;;;;;;0.30;0.27;;;;;;;9.51;94.60;96708.59;5077747;28;20933;-56
2021/12/04 12:17:14;;;;;;;0.30;0.30;;;;;;;9.42;95.93;96716.56;5075900;28;20196;-56
2021/12/04 12:19:49;;;;;;;0.47;0.47;;;;;;;9.48;94.49;96686.34;5062828;28;20232;-56
2021/12/04 12:22:29;;;;;;;0.63;0.60;;;;;;;9.38;96.22;96678.06;5071484;28;20247;-56
2021/12/04 12:25:12;;;;;;;0.50;0.50;;;;;;;9.48;95.93;96669.91;5070633;28;20228;-56
2021/12/04 12:27:50;;;;;;;1.10;0.60;;;;;;;9.41;96.17;96683.69;5056581;28;20180;-56
2021/12/04 12:33:22;;;;;;;1.43;0.40;;;;;;;9.33;96.43;96673.44;5058626;28;20194;-56
2021/12/04 12:36:04;;;;;;;0.80;0.47;;;;;;;9.24;96.34;96679.78;5054269;28;20197;-56
2021/12/04 12:38:48;;;;;;;0.40;0.40;;;;;;;9.20;96.26;96694.16;5060384;28;20215;-56
2021/12/04 12:41:26;;;;;;;0.70;0.30;;;;;;;9.20;96.12;96712.38;5058000;28;20282;-55
2021/12/04 12:44:01;;;;;;;0.60;0.40;;;;;;;9.16;97.08;96707.56;5056758;28;20188;-55
2021/12/04 12:46:43;;;;;;;2.50;1.60;;;;;;;9.07;98.13;96695.66;5062665;28;20195;-56
2021/12/04 12:49:25;;;;;;;0.60;0.50;;;;;;;8.99;97.95;96662.00;5066116;28;20183;-56
2021/12/04 12:52:00;;;;;;;0.30;0.30;;;;;;;9.04;98.87;96651.00;5055260;28;20192;-56
2021/12/04 12:54:31;;;;;;;1.77;1.60;;;;;;;9.09;97.80;96653.84;5050929;28;20468;-56
2021/12/04 12:57:07;;;;;;;10.97;5.40;;;;;;;9.10;97.57;96676.28;5060722;28;20238;-56
2021/12/04 12:59:42;;;;;;;0.90;0.73;;;;;;;9.10;97.02;96678.88;5062516;28;20219;-56
2021/12/04 13:13:31;;;;;;;5.17;3.10;;;;;;;9.03;99.55;96686.63;5063482;28;20183;-56
2021/12/04 13:16:04;;;;;;;2.37;1.60;;;;;;;9.04;100.00;96684.84;5063047;28;20187;-56
2021/12/04 13:18:32;;;;;;;1.40;1.07;;;;;;;9.04;100.00;96700.47;5061139;28;20714;-53
2021/12/04 13:21:03;;;;;;;1.10;0.60;;;;;;;8.98;100.00;96679.41;5061969;28;20580;-52
2021/12/04 13:23:30;;;;;;;0.50;0.20;;;;;;;8.87;100.00;96692.91;5060699;28;20273;-55
2021/12/04 13:25:59;;;;;;;0.53;0.40;;;;;;;8.89;100.00;96692.75;5046035;28;20616;-56
2021/12/04 13:28:31;;;;;;;0.30;0.30;;;;;;;8.92;100.00;96680.16;5057529;28;20649;-55
2021/12/04 13:31:00;;;;;;;2.33;0.67;;;;;;;8.88;100.00;96680.72;5052935;28;20550;-52
2021/12/04 13:33:28;;;;;;;1.00;0.73;;;;;;;8.83;100.00;96676.91;5053876;28;20661;-57
2021/12/04 13:35:55;;;;;;;0.33;0.30;;;;;;;8.83;100.00;96668.28;5053836;28;20268;-56
2021/12/04 13:38:24;;;;;;;0.53;0.20;;;;;;;8.84;100.00;96662.91;5053399;28;20212;-56
2021/12/04 13:40:54;;;;;;;0.77;0.60;;;;;;;8.94;100.00;96662.56;5050279;28;20238;-57
2021/12/04 13:43:22;;;;;;;0.90;0.30;;;;;;;9.05;100.00;96663.81;5039355;28;20192;-55
2021/12/04 13:45:58;;;;;;;1.70;0.30;;;;;;;9.17;98.72;96651.09;5052468;28;20222;-55
2021/12/04 13:48:25;;;;;;;1.27;0.40;;;;;;;9.16;97.47;96665.13;5053707;28;20184;-58
2021/12/04 13:50:52;;;;;;;2.10;1.00;;;;;;;9.16;97.25;96665.13;5052755;28;20208;-56
2021/12/04 13:53:25;;;;;;;6.97;3.53;;;;;;;9.18;97.34;96676.16;5050842;28;20243;-55
2021/12/04 13:55:56;;;;;;;9.97;4.53;;;;;;;9.14;97.44;96677.50;5048112;28;20669;-55
2021/12/04 13:58:24;;;;;;;2.63;1.40;;;;;;;9.09;98.69;96691.09;5041438;28;20700;-56
2021/12/04 14:00:51;;;;;;;1.30;0.60;;;;;;;9.18;97.43;96693.53;5030371;28;20220;-57
2021/12/04 14:03:27;;;;;;;3.07;2.03;;;;;;;9.16;97.77;96704.16;5047217;28;20195;-57
2021/12/04 14:05:54;;;;;;;6.20;3.80;;;;;;;9.14;98.54;96719.94;5044629;28;20191;-56